Time;durP1;ratioP1;P1;durP2;ratioP2;P2;SDS_P1;SDS_P2;PMS_P1;PMS_P2;Temp;Humidity;BMP_temperature;BMP_pressure;BME280_temperature;BME280_humidity;BME280_pressure;Samples;Min_cycle;Max_cycle;Signal;HPM_P1;HPM_P2
2022/04/07 00:02:00;;;;;;;2.92;1.58;;;;;;;10.31;74.78;99186.56;4716842;30;20057;-89
2022/04/07 00:04:25;;;;;;;3.85;1.50;;;;;;;10.34;74.79;99180.22;4700535;30;20116;-90
2022/04/07 00:06:51;;;;;;;3.95;1.70;;;;;;;10.28;74.86;99197.31;4717751;30;20127;-90
2022/04/07 00:09:16;;;;;;;2.08;1.38;;;;;;;10.34;74.24;99183.69;4697979;30;20029;-90
2022/04/07 00:11:41;;;;;;;6.50;2.25;;;;;;;10.31;74.58;99164.59;4715799;30;20086;-89
2022/04/07 00:14:07;;;;;;;3.67;1.38;;;;;;;10.27;74.47;99179.78;4714560;30;20033;-88
2022/04/07 00:16:32;;;;;;;5.18;1.70;;;;;;;10.22;74.56;99171.28;4699159;30;20033;-90
2022/04/07 00:18:59;;;;;;;4.15;1.63;;;;;;;10.20;74.53;99174.00;4710067;30;20029;-88
2022/04/07 00:21:25;;;;;;;4.95;1.60;;;;;;;10.17;74.55;99150.44;4716114;30;20562;-89
2022/04/07 00:23:51;;;;;;;2.65;1.40;;;;;;;10.13;74.25;99162.16;4694314;30;20032;-89
2022/04/07 00:26:17;;;;;;;3.03;1.63;;;;;;;10.23;74.74;99157.97;4699135;30;20044;-88
2022/04/07 00:28:42;;;;;;;5.30;1.60;;;;;;;10.21;74.57;99157.22;4711678;30;20028;-89
2022/04/07 00:31:07;;;;;;;3.60;1.50;;;;;;;10.22;74.59;99151.00;4699993;30;20514;-90
2022/04/07 00:33:33;;;;;;;3.92;1.60;;;;;;;10.18;74.08;99151.28;4699130;30;20486;-90
2022/04/07 00:35:59;;;;;;;5.75;1.80;;;;;;;10.26;74.98;99148.16;4700148;30;20123;-90
2022/04/07 00:38:24;;;;;;;2.53;1.50;;;;;;;10.24;75.31;99127.16;4716979;30;20055;-87
2022/04/07 00:40:49;;;;;;;6.95;2.03;;;;;;;10.17;75.85;99117.91;4714750;30;20419;-90
2022/04/07 00:43:32;;;;;;;3.20;1.60;;;;;;;10.17;75.88;99123.19;4695674;30;20040;-90
2022/04/07 00:45:58;;;;;;;3.13;1.73;;;;;;;10.13;75.60;99114.63;4711405;30;20375;-90
2022/04/07 00:48:24;;;;;;;6.25;2.15;;;;;;;10.04;74.88;99096.75;4710115;30;20043;-89
2022/04/07 00:50:50;;;;;;;7.18;2.13;;;;;;;10.13;74.54;99106.69;4729167;30;20033;-92
2022/04/07 00:53:16;;;;;;;4.82;1.80;;;;;;;10.12;74.57;99107.66;4714245;30;20059;-89
2022/04/07 00:55:42;;;;;;;7.78;2.65;;;;;;;10.14;75.32;99086.41;4714339;30;20041;-89
2022/04/07 00:58:08;;;;;;;4.35;1.88;;;;;;;10.07;77.15;99083.34;4710763;30;20051;-88
2022/04/07 01:00:34;;;;;;;4.93;1.90;;;;;;;10.07;76.61;99077.19;4710787;30;20549;-90
2022/04/07 01:02:59;;;;;;;5.75;2.00;;;;;;;9.99;76.40;99074.25;4714867;30;20060;-89
2022/04/07 01:05:25;;;;;;;6.43;1.70;;;;;;;10.04;77.06;99085.34;4714587;30;20366;-88
2022/04/07 01:07:51;;;;;;;6.05;1.92;;;;;;;9.92;77.94;99084.34;4709528;30;20065;-89
2022/04/07 01:10:17;;;;;;;8.13;2.35;;;;;;;9.71;80.55;99070.78;4714560;30;20037;-91
2022/04/07 01:12:42;;;;;;;7.95;2.60;;;;;;;9.68;79.75;99082.34;4715410;30;20048;-90
2022/04/07 01:15:09;;;;;;;5.65;1.92;;;;;;;9.64;80.33;99065.03;4712985;30;20041;-89
2022/04/07 01:17:35;;;;;;;6.38;2.28;;;;;;;9.66;78.72;99062.31;4697359;30;20167;-90
2022/04/07 01:20:02;;;;;;;7.07;2.30;;;;;;;9.65;79.44;99063.22;4696257;30;20419;-89
2022/04/07 01:22:28;;;;;;;5.75;1.92;;;;;;;9.70;79.08;99059.38;4693448;30;20033;-89
2022/04/07 01:24:53;;;;;;;4.78;2.28;;;;;;;9.76;78.70;99054.63;4709137;30;20045;-89
2022/04/07 01:27:19;;;;;;;4.80;2.00;;;;;;;9.76;79.57;99047.56;4696279;30;20056;-89
2022/04/07 01:29:44;;;;;;;8.07;2.03;;;;;;;9.79;78.49;99041.22;4715362;30;20056;-90
2022/04/07 01:32:22;;;;;;;5.93;2.25;;;;;;;9.78;77.80;99035.09;4698206;30;20503;-90
2022/04/07 01:34:47;;;;;;;3.72;2.10;;;;;;;9.91;76.87;99019.31;4714017;30;20079;-88
2022/04/07 01:37:13;;;;;;;4.82;2.05;;;;;;;9.90;76.39;99018.47;4709089;30;20156;-90
2022/04/07 01:39:43;;;;;;;9.32;1.95;;;;;;;10.02;76.08;99014.16;4699958;30;20069;-89
2022/04/07 01:42:09;;;;;;;7.13;2.22;;;;;;;10.04;75.79;99014.06;4710997;30;20037;-91
2022/04/07 01:44:39;;;;;;;6.53;1.98;;;;;;;9.99;75.15;99006.44;4695210;30;20498;-90
2022/04/07 01:47:08;;;;;;;5.93;2.20;;;;;;;10.09;74.57;99004.88;4717368;30;20033;-91
2022/04/07 01:49:35;;;;;;;7.38;2.28;;;;;;;10.12;74.96;98995.91;4698442;30;20521;-89
2022/04/07 01:52:03;;;;;;;7.75;2.25;;;;;;;10.05;74.57;98979.63;4715713;30;20108;-88
2022/04/07 01:54:29;;;;;;;8.05;2.35;;;;;;;10.11;74.49;98992.41;4697021;30;20110;-90
2022/04/07 01:56:55;;;;;;;4.03;2.15;;;;;;;10.15;75.02;98974.56;4697185;30;20453;-88
2022/04/07 01:59:21;;;;;;;4.53;2.03;;;;;;;10.12;75.14;98985.34;4707316;30;20037;-90
2022/04/07 02:01:47;;;;;;;4.05;2.30;;;;;;;10.17;74.46;98972.69;4724377;30;20513;-90
2022/04/07 02:04:12;;;;;;;3.97;1.70;;;;;;;10.17;74.43;98980.59;4700802;30;20047;-90
2022/04/07 02:06:37;;;;;;;8.48;2.50;;;;;;;10.13;74.63;98969.41;4716430;30;20033;-91
2022/04/07 02:09:03;;;;;;;4.90;2.15;;;;;;;10.16;75.36;98969.16;4712226;30;20061;-91
2022/04/07 02:11:28;;;;;;;7.90;2.10;;;;;;;10.13;75.02;98966.75;4711062;30;20044;-91
2022/04/07 02:13:54;;;;;;;6.55;1.98;;;;;;;10.15;75.65;98972.75;4694201;30;20153;-89
2022/04/07 02:16:20;;;;;;;3.80;2.08;;;;;;;10.07;75.88;98961.91;4697583;30;20406;-87
2022/04/07 02:18:46;;;;;;;4.75;1.67;;;;;;;10.13;75.48;98963.28;4706909;30;20047;-88
2022/04/07 02:21:11;;;;;;;6.88;2.45;;;;;;;10.07;75.53;98940.78;4695627;30;20391;-88
2022/04/07 02:23:42;;;;;;;6.30;2.45;;;;;;;10.07;75.67;98959.25;4699028;30;20025;-89
2022/04/07 02:26:15;;;;;;;9.35;2.35;;;;;;;10.11;75.25;98946.66;4711452;30;20502;-89
2022/04/07 02:28:41;;;;;;;7.80;2.15;;;;;;;10.14;75.30;98941.19;4709868;30;20029;-89
2022/04/07 02:31:07;;;;;;;5.45;1.63;;;;;;;10.21;74.79;98943.31;4716218;30;20057;-89
2022/04/07 02:33:34;;;;;;;4.40;1.85;;;;;;;10.27;74.39;98944.72;4714179;30;20765;-88
2022/04/07 02:36:04;;;;;;;10.02;2.13;;;;;;;10.23;74.11;98930.84;4708606;30;20125;-89
2022/04/07 02:38:29;;;;;;;8.98;2.15;;;;;;;10.36;73.85;98936.16;4710189;30;20044;-89
2022/04/07 02:40:55;;;;;;;6.38;1.83;;;;;;;10.32;73.97;98950.53;4696628;30;20032;-89
2022/04/07 02:43:20;;;;;;;8.10;2.10;;;;;;;10.31;73.87;98929.50;4710282;30;20052;-89
2022/04/07 02:45:45;;;;;;;7.00;1.60;;;;;;;10.26;73.66;98927.19;4695147;30;20055;-90
2022/04/07 02:48:11;;;;;;;5.47;1.92;;;;;;;10.34;73.50;98924.00;4713336;30;20381;-90
2022/04/07 02:50:36;;;;;;;5.00;1.95;;;;;;;10.35;72.76;98913.34;4695472;30;20044;-89
2022/04/07 02:53:01;;;;;;;5.50;1.95;;;;;;;10.34;73.17;98908.13;4712468;30;20106;-90
2022/04/07 02:55:27;;;;;;;8.10;2.45;;;;;;;10.36;73.08;98877.19;4713164;30;20565;-89
2022/04/07 02:57:53;;;;;;;5.63;2.22;;;;;;;10.36;73.24;98893.88;4711986;30;20033;-89
2022/04/07 03:00:18;;;;;;;2.75;1.45;;;;;;;10.40;72.28;98886.59;4695534;30;20897;-89
2022/04/07 03:02:43;;;;;;;9.27;2.17;;;;;;;10.32;71.95;98875.72;4698612;30;20055;-88
2022/04/07 03:05:09;;;;;;;5.82;2.08;;;;;;;10.42;72.07;98888.16;4711996;30;20029;-90
2022/04/07 03:07:35;;;;;;;12.15;2.90;;;;;;;10.48;71.71;98865.75;4692205;30;20122;-90
2022/04/07 03:10:01;;;;;;;8.95;2.28;;;;;;;10.51;71.50;98844.41;4713880;30;20043;-88
2022/04/07 03:12:26;;;;;;;6.45;2.13;;;;;;;10.52;71.68;98861.09;4700520;30;20032;-87
2022/04/07 03:14:52;;;;;;;7.55;2.03;;;;;;;10.62;70.94;98848.91;4713521;30;20128;-89
2022/04/07 03:17:17;;;;;;;5.72;1.95;;;;;;;10.61;71.16;98836.66;4709755;30;20043;-89
2022/04/07 03:19:43;;;;;;;10.13;2.72;;;;;;;10.63;71.27;98834.72;4711459;30;20044;-88
2022/04/07 03:22:08;;;;;;;9.25;1.90;;;;;;;10.61;70.86;98819.00;4713175;30;20036;-88
2022/04/07 03:24:34;;;;;;;6.13;1.67;;;;;;;10.63;70.63;98834.72;4714882;30;20072;-88
2022/04/07 03:26:59;;;;;;;6.05;2.33;;;;;;;10.63;70.80;98840.00;4712548;30;20044;-89
2022/04/07 03:29:26;;;;;;;5.82;1.70;;;;;;;10.65;70.42;98831.03;4698418;30;20060;-90
2022/04/07 03:31:51;;;;;;;11.55;2.58;;;;;;;10.64;70.21;98808.22;4712716;30;20045;-90
2022/04/07 03:34:17;;;;;;;7.30;2.03;;;;;;;10.67;70.14;98796.56;4698739;30;21293;-90
2022/04/07 03:36:42;;;;;;;7.72;2.00;;;;;;;10.67;69.96;98800.03;4702368;30;20040;-90
2022/04/07 03:39:09;;;;;;;3.88;1.42;;;;;;;10.66;70.13;98800.16;4697142;30;20040;-91
2022/04/07 03:41:34;;;;;;;7.53;2.30;;;;;;;10.63;69.63;98795.09;4712647;30;20048;-90
2022/04/07 03:44:00;;;;;;;8.35;1.98;;;;;;;10.63;69.82;98782.75;4709755;30;20041;-90
2022/04/07 03:46:25;;;;;;;6.88;2.00;;;;;;;10.61;70.45;98784.63;4713702;30;20041;-91
2022/04/07 03:48:51;;;;;;;8.68;1.90;;;;;;;10.61;70.01;98775.88;4696679;30;20040;-87
2022/04/07 03:51:17;;;;;;;9.13;1.70;;;;;;;10.75;69.89;98783.63;4713143;30;20052;-90
2022/04/07 03:53:42;;;;;;;6.15;2.25;;;;;;;10.64;69.41;98781.78;4711521;30;20402;-88
2022/04/07 03:56:07;;;;;;;5.72;1.40;;;;;;;10.68;69.65;98769.19;4695362;30;20036;-89
2022/04/07 03:58:33;;;;;;;7.68;2.25;;;;;;;10.67;70.21;98768.31;4712080;30;20640;-89
2022/04/07 04:00:59;;;;;;;7.53;1.85;;;;;;;10.70;69.87;98775.19;4716798;30;20136;-89
2022/04/07 04:03:24;;;;;;;6.15;1.75;;;;;;;10.71;70.13;98772.44;4717487;30;20040;-90
2022/04/07 04:05:50;;;;;;;5.43;1.80;;;;;;;10.66;69.89;98756.06;4714820;30;20336;-90
2022/04/07 04:08:15;;;;;;;9.68;2.55;;;;;;;10.67;69.92;98739.25;4693583;30;20130;-90
2022/04/07 04:10:40;;;;;;;6.63;2.28;;;;;;;10.58;69.75;98726.72;4699237;30;20040;-88
2022/04/07 04:13:05;;;;;;;3.83;1.63;;;;;;;10.62;69.30;98727.34;4717093;30;20064;-89
2022/04/07 04:15:31;;;;;;;6.00;1.92;;;;;;;10.70;69.81;98703.84;4700113;30;20056;-87
2022/04/07 04:17:56;;;;;;;3.08;1.65;;;;;;;10.65;69.81;98695.41;4712288;30;20043;-89
2022/04/07 04:20:21;;;;;;;5.07;1.80;;;;;;;10.61;69.78;98707.19;4717237;30;20036;-90
2022/04/07 04:22:47;;;;;;;4.63;1.80;;;;;;;10.62;69.96;98675.34;4713752;30;20117;-90
2022/04/07 04:25:12;;;;;;;6.80;1.60;;;;;;;10.66;69.52;98650.38;4697239;30;20159;-90
2022/04/07 04:27:37;;;;;;;4.57;1.40;;;;;;;10.63;70.14;98647.97;4711936;30;20522;-90
2022/04/07 04:30:03;;;;;;;6.47;1.60;;;;;;;10.64;69.52;98649.66;4696861;30;20169;-90
2022/04/07 04:32:28;;;;;;;8.52;2.10;;;;;;;10.62;69.50;98646.28;4710480;30;20055;-89
2022/04/07 04:34:54;;;;;;;3.15;1.30;;;;;;;10.62;69.44;98616.38;4709330;30;20063;-91
2022/04/07 04:37:21;;;;;;;2.28;1.23;;;;;;;10.72;68.94;98643.78;4710991;30;20040;-91
2022/04/07 04:39:46;;;;;;;3.88;1.63;;;;;;;10.77;68.48;98649.59;4695539;30;20033;-91
2022/04/07 04:42:12;;;;;;;3.42;1.17;;;;;;;10.79;68.71;98623.03;4715061;30;20141;-88
2022/04/07 04:44:37;;;;;;;4.80;1.80;;;;;;;10.67;69.73;98608.94;4699351;30;20043;-90
2022/04/07 04:47:03;;;;;;;8.45;1.85;;;;;;;10.69;69.74;98625.53;4699437;30;20379;-90
2022/04/07 04:49:28;;;;;;;4.20;1.30;;;;;;;10.64;70.25;98628.53;4722021;30;20399;-91
2022/04/07 04:51:53;;;;;;;5.03;1.42;;;;;;;10.61;72.06;98620.81;4712874;30;20025;-88
2022/04/07 04:54:18;;;;;;;3.95;1.65;;;;;;;10.54;71.87;98608.19;4696616;30;20119;-89
2022/04/07 04:56:44;;;;;;;3.35;1.20;;;;;;;10.42;72.98;98607.31;4714348;30;20044;-90
2022/04/07 04:59:09;;;;;;;1.65;1.30;;;;;;;10.45;73.48;98596.53;4711951;30;20090;-91
2022/04/07 05:01:34;;;;;;;2.03;1.10;;;;;;;10.36;73.62;98594.59;4717511;30;20048;-91
2022/04/07 05:04:00;;;;;;;3.03;1.27;;;;;;;10.20;76.59;98568.44;4717534;30;20025;-90
2022/04/07 05:06:25;;;;;;;5.70;1.25;;;;;;;10.16;77.02;98567.81;4697572;30;20550;-90
2022/04/07 05:08:51;;;;;;;2.80;1.00;;;;;;;10.21;76.06;98568.34;4709119;30;20044;-90
2022/04/07 05:11:16;;;;;;;1.95;1.13;;;;;;;10.28;74.72;98544.13;4714502;30;20120;-90
2022/04/07 05:13:41;;;;;;;2.30;1.10;;;;;;;10.31;74.83;98536.81;4695246;30;20039;-89
2022/04/07 05:16:15;;;;;;;2.90;1.20;;;;;;;10.22;74.33;98535.69;4717298;30;20521;-89
2022/04/07 05:18:41;;;;;;;2.65;1.40;;;;;;;10.21;75.02;98576.25;4694343;30;20033;-92
2022/04/07 05:21:06;;;;;;;2.72;1.30;;;;;;;10.25;74.92;98547.81;4711259;30;20422;-90
2022/04/07 05:23:32;;;;;;;2.30;1.27;;;;;;;10.29;74.92;98536.09;4710849;30;20048;-90
2022/04/07 05:25:58;;;;;;;3.88;1.30;;;;;;;10.30;74.69;98537.75;4710610;30;20441;-91
2022/04/07 05:28:23;;;;;;;1.95;1.40;;;;;;;10.23;76.23;98537.34;4710094;30;20025;-90
2022/04/07 05:30:48;;;;;;;2.50;1.50;;;;;;;10.23;76.31;98496.91;4710885;30;20065;-91
2022/04/07 05:33:15;;;;;;;4.18;1.85;;;;;;;9.93;77.54;98492.13;4699459;30;20316;-89
2022/04/07 05:35:40;;;;;;;3.42;1.77;;;;;;;9.92;78.37;98486.03;4697049;30;20036;-91
2022/04/07 05:38:05;;;;;;;4.20;2.72;;;;;;;9.95;78.56;98493.72;4708351;30;21160;-90
2022/04/07 05:40:33;;;;;;;4.25;1.58;;;;;;;9.81;79.56;98506.28;4717606;30;20469;-89
2022/04/07 05:42:59;;;;;;;3.78;1.80;;;;;;;9.68;82.19;98501.06;4713099;30;20028;-89
2022/04/07 05:45:24;;;;;;;3.50;2.00;;;;;;;9.51;82.57;98489.09;4716951;30;20070;-89
2022/04/07 05:47:49;;;;;;;4.43;1.98;;;;;;;9.41;83.96;98486.28;4699178;30;20041;-89
2022/04/07 05:50:15;;;;;;;5.93;3.17;;;;;;;9.28;85.13;98484.66;4723615;30;20056;-90
2022/04/07 05:52:41;;;;;;;5.60;2.67;;;;;;;9.29;85.07;98460.00;4699248;30;20045;-90
2022/04/07 05:55:06;;;;;;;6.60;3.20;;;;;;;9.17;86.14;98449.38;4701579;30;20056;-90
2022/04/07 05:57:32;;;;;;;7.13;2.90;;;;;;;9.21;86.37;98447.38;4713723;30;20065;-91
2022/04/07 06:00:17;;;;;;;6.03;2.80;;;;;;;9.12;86.76;98445.41;4697945;30;20036;-88
2022/04/07 06:02:43;;;;;;;7.18;3.53;;;;;;;9.09;86.40;98419.25;4710097;30;20090;-92
2022/04/07 06:05:09;;;;;;;6.63;3.42;;;;;;;9.18;86.11;98437.88;4695754;30;20036;-91
2022/04/07 06:07:35;;;;;;;7.25;3.10;;;;;;;9.19;86.35;98421.13;4694565;30;20558;-91
2022/04/07 06:10:01;;;;;;;5.75;2.88;;;;;;;9.20;85.31;98421.97;4698373;30;20441;-93
2022/04/07 06:12:27;;;;;;;4.82;2.70;;;;;;;9.20;84.67;98398.22;4715389;30;20405;-91
2022/04/07 06:14:52;;;;;;;6.20;3.58;;;;;;;9.22;84.65;98406.84;4697387;30;20036;-89
2022/04/07 06:17:18;;;;;;;6.90;3.60;;;;;;;9.23;85.34;98399.78;4698997;30;20119;-93
2022/04/07 06:19:43;;;;;;;6.50;3.92;;;;;;;9.23;85.45;98405.06;4697557;30;20037;-91
2022/04/07 06:22:11;;;;;;;6.70;3.13;;;;;;;9.14;85.48;98374.97;4696584;30;20989;-94
2022/04/07 06:24:36;;;;;;;7.82;2.85;;;;;;;9.17;84.58;98380.00;4699108;30;20037;-91
2022/04/07 06:27:01;;;;;;;5.93;3.05;;;;;;;9.19;86.21;98368.41;4699793;30;20033;-92
2022/04/07 06:29:27;;;;;;;6.40;2.72;;;;;;;9.14;85.09;98389.00;4697054;30;20065;-90
2022/04/07 06:31:53;;;;;;;5.70;3.17;;;;;;;9.22;85.17;98358.56;4713366;30;20045;-91
2022/04/07 06:34:20;;;;;;;4.25;2.08;;;;;;;9.23;86.21;98347.91;4699737;30;20044;-93
2022/04/07 06:36:47;;;;;;;3.55;2.25;;;;;;;9.27;86.71;98364.34;4698203;30;20116;-93
2022/04/07 06:39:12;;;;;;;2.33;1.92;;;;;;;9.27;85.47;98364.34;4696769;30;20037;-93
2022/04/07 06:41:37;;;;;;;7.57;2.50;;;;;;;9.30;85.33;98332.47;4698999;30;20033;-92
2022/04/07 06:44:03;;;;;;;3.92;2.22;;;;;;;9.14;85.14;98333.63;4699060;30;20130;-93
2022/04/07 06:46:28;;;;;;;6.28;2.28;;;;;;;9.22;85.12;98322.50;4715060;30;20392;-93
2022/04/07 06:48:53;;;;;;;9.18;2.40;;;;;;;9.14;85.84;98309.06;4700642;30;20120;-92
2022/04/07 06:51:19;;;;;;;3.88;1.80;;;;;;;9.07;86.58;98305.19;4696251;30;20099;-95
2022/04/07 06:53:44;;;;;;;6.88;1.80;;;;;;;9.06;86.81;98288.56;4705995;30;20096;-95
2022/04/07 06:56:10;;;;;;;7.30;2.08;;;;;;;8.96;86.80;98297.25;4715848;30;20061;-92
2022/04/07 06:58:36;;;;;;;7.18;1.95;;;;;;;8.97;87.56;98296.31;4701484;30;20113;-92
2022/04/07 07:01:01;;;;;;;7.18;2.60;;;;;;;8.90;87.79;98280.94;4704149;30;20522;-94
2022/04/07 07:03:28;;;;;;;5.15;1.83;;;;;;;8.89;87.87;98268.72;4701836;30;20040;-92
2022/04/07 07:05:58;;;;;;;4.90;1.50;;;;;;;8.78;89.61;98252.03;4702266;30;20036;-90
2022/04/07 07:08:24;;;;;;;10.77;2.60;;;;;;;8.83;90.13;98239.38;4699117;30;20033;-92
2022/04/07 07:10:50;;;;;;;7.10;2.22;;;;;;;8.73;89.90;98239.22;4705440;30;20058;-94
2022/04/07 07:13:17;;;;;;;3.67;2.00;;;;;;;8.87;90.13;98231.13;4731345;30;20140;-93
2022/04/07 07:15:43;;;;;;;4.55;2.00;;;;;;;8.88;90.78;98222.25;4700209;30;20097;-92
2022/04/07 07:18:09;;;;;;;5.20;1.98;;;;;;;8.84;89.36;98227.88;4717273;30;20479;-91
2022/04/07 07:20:35;;;;;;;7.78;2.00;;;;;;;8.87;90.41;98203.94;4719394;30;20116;-90
2022/04/07 07:23:00;;;;;;;3.15;2.03;;;;;;;8.84;90.54;98197.09;4705522;30;20040;-90
2022/04/07 07:25:27;;;;;;;7.35;2.33;;;;;;;8.84;90.32;98181.28;4723460;30;20071;-94
2022/04/07 07:27:53;;;;;;;4.28;1.67;;;;;;;8.91;89.85;98179.03;4718342;30;20059;-91
2022/04/07 07:30:19;;;;;;;6.13;1.90;;;;;;;8.87;90.33;98161.78;4701356;30;20080;-92
2022/04/07 07:32:46;;;;;;;5.68;1.98;;;;;;;9.01;90.40;98137.84;4707608;30;20387;-90
2022/04/07 07:35:12;;;;;;;6.75;2.17;;;;;;;9.03;90.21;98135.09;4698538;30;20028;-91
2022/04/07 07:37:50;;;;;;;3.80;2.22;;;;;;;9.12;90.28;98127.31;4717435;30;21275;-92
2022/04/07 07:40:17;;;;;;;6.10;1.83;;;;;;;9.15;90.40;98132.34;4703892;30;20188;-92
2022/04/07 07:42:42;;;;;;;3.40;1.58;;;;;;;9.22;90.23;98142.41;4719718;30;20352;-91
2022/04/07 07:45:08;;;;;;;3.50;2.13;;;;;;;9.33;89.73;98152.97;4721060;30;20029;-94
2022/04/07 07:47:33;;;;;;;7.18;2.05;;;;;;;9.38;89.44;98214.94;4702701;30;20052;-94
2022/04/07 07:49:59;;;;;;;3.28;1.10;;;;;;;9.13;88.01;98233.56;4697616;30;20029;-91
2022/04/07 07:52:24;;;;;;;2.88;0.80;;;;;;;8.64;87.11;98303.09;4697793;30;20110;-86
2022/04/07 07:54:50;;;;;;;1.50;0.65;;;;;;;8.18;86.99;98324.78;4692627;30;20079;-85
2022/04/07 07:57:15;;;;;;;1.83;0.50;;;;;;;7.98;87.80;98341.16;4693696;30;20415;-84
2022/04/07 07:59:40;;;;;;;0.73;0.60;;;;;;;7.84;87.63;98336.84;4694199;30;20195;-86
2022/04/07 08:02:06;;;;;;;0.98;0.63;;;;;;;7.69;87.90;98328.19;4697384;30;20060;-85
2022/04/07 08:04:31;;;;;;;2.13;0.95;;;;;;;7.63;87.86;98305.78;4717534;30;20032;-86
2022/04/07 08:06:56;;;;;;;3.28;0.80;;;;;;;7.68;88.19;98308.94;4699951;30;20048;-87
2022/04/07 08:09:22;;;;;;;3.28;1.00;;;;;;;7.70;88.20;98293.09;4692856;30;20044;-87
2022/04/07 08:11:47;;;;;;;2.45;0.90;;;;;;;7.70;88.03;98308.88;4713611;30;20048;-87
2022/04/07 08:14:12;;;;;;;3.92;1.10;;;;;;;7.66;88.34;98320.53;4698380;30;20033;-88
2022/04/07 08:16:38;;;;;;;2.10;1.13;;;;;;;7.59;88.01;98296.44;4711916;30;20048;-87
2022/04/07 08:19:05;;;;;;;2.38;1.10;;;;;;;7.54;88.21;98282.75;4712630;30;20029;-87
2022/04/07 08:21:31;;;;;;;1.15;1.05;;;;;;;7.52;88.02;98295.19;4712946;30;20044;-87
2022/04/07 08:23:56;;;;;;;2.65;1.10;;;;;;;7.55;87.94;98276.56;4715202;30;20115;-89
2022/04/07 08:26:21;;;;;;;2.20;0.98;;;;;;;7.64;87.74;98285.59;4714126;30;20501;-89
2022/04/07 08:28:47;;;;;;;2.30;1.10;;;;;;;7.75;88.36;98290.97;4715110;30;20538;-89
2022/04/07 08:31:12;;;;;;;4.70;1.23;;;;;;;7.82;88.21;98283.47;4703645;30;20065;-88
2022/04/07 08:33:38;;;;;;;1.90;1.13;;;;;;;7.96;88.48;98283.34;4680666;30;20391;-89
2022/04/07 08:36:04;;;;;;;4.03;1.25;;;;;;;7.95;88.07;98283.47;4681290;30;20036;-89
2022/04/07 08:38:29;;;;;;;2.78;1.00;;;;;;;8.01;88.52;98277.78;4695431;30;20048;-89
2022/04/07 08:40:55;;;;;;;3.25;1.40;;;;;;;8.21;88.36;98298.28;4694775;30;20041;-90
2022/04/07 08:43:22;;;;;;;3.67;1.10;;;;;;;8.34;88.32;98293.78;4684893;30;20455;-90
2022/04/07 08:45:49;;;;;;;0.80;0.80;;;;;;;8.30;87.56;98271.28;4697567;30;20174;-88
2022/04/07 08:48:15;;;;;;;3.20;0.88;;;;;;;8.37;87.71;98285.72;4694718;30;20036;-91
2022/04/07 08:50:41;;;;;;;11.10;1.30;;;;;;;8.49;87.66;98264.72;4681143;30;20033;-90
2022/04/07 08:53:07;;;;;;;4.20;1.17;;;;;;;8.66;88.20;98256.41;4683255;30;20511;-89
2022/04/07 08:55:33;;;;;;;3.67;1.20;;;;;;;8.73;87.89;98260.28;4697450;30;20123;-88
2022/04/07 08:58:02;;;;;;;1.92;0.90;;;;;;;8.84;87.07;98262.13;4678876;30;20698;-88
2022/04/07 09:00:27;;;;;;;1.70;0.93;;;;;;;9.14;87.18;98253.72;4693272;30;20067;-90
2022/04/07 09:02:53;;;;;;;3.55;1.35;;;;;;;9.51;86.81;98267.53;4680294;30;20535;-91
2022/04/07 09:05:23;;;;;;;7.13;1.42;;;;;;;9.99;86.60;98262.06;4680171;30;20041;-90
2022/04/07 09:07:50;;;;;;;3.30;1.40;;;;;;;10.49;86.57;98270.38;4698287;30;20026;-89
2022/04/07 09:10:18;;;;;;;4.10;1.50;;;;;;;10.81;85.57;98267.75;4697603;30;20033;-91
2022/04/07 09:12:44;;;;;;;6.65;1.88;;;;;;;10.91;84.86;98255.50;4696885;30;20194;-91
2022/04/07 09:15:12;;;;;;;5.82;2.10;;;;;;;10.96;83.35;98281.53;4679143;30;20037;-91
2022/04/07 09:17:59;;;;;;;5.45;1.63;;;;;;;11.12;81.75;98284.56;4676581;30;20037;-91
2022/04/07 09:20:24;;;;;;;3.90;1.83;;;;;;;11.46;83.30;98271.16;4679828;30;20129;-87
2022/04/07 09:22:58;;;;;;;3.00;1.30;;;;;;;11.76;79.55;98275.66;4699392;30;20112;-89
2022/04/07 09:25:23;;;;;;;4.40;2.00;;;;;;;12.12;81.59;98279.56;4700635;30;20530;-90
2022/04/07 09:27:49;;;;;;;4.60;1.85;;;;;;;12.38;81.01;98273.81;4696428;30;20064;-91
2022/04/07 09:30:15;;;;;;;2.15;1.60;;;;;;;12.49;79.13;98258.63;4684591;30;20054;-90
2022/04/07 09:32:43;;;;;;;4.10;1.90;;;;;;;12.64;80.74;98272.34;4700128;30;20036;-90
2022/04/07 09:35:09;;;;;;;3.70;1.20;;;;;;;12.71;78.63;98280.56;4689631;30;20034;-89
2022/04/07 09:37:36;;;;;;;4.55;1.77;;;;;;;12.61;80.82;98275.25;4696926;30;20124;-90
2022/04/07 09:40:14;;;;;;;3.05;1.40;;;;;;;12.67;76.32;98284.47;4692539;30;20119;-90
2022/04/07 09:42:41;;;;;;;1.95;1.73;;;;;;;12.95;78.00;98280.16;4698946;30;20487;-90
2022/04/07 09:45:11;;;;;;;5.82;1.88;;;;;;;13.11;79.18;98284.91;4692874;30;20061;-90
2022/04/07 09:47:45;;;;;;;2.75;1.42;;;;;;;12.82;75.30;98292.84;4694002;30;20395;-90
2022/04/07 09:50:21;;;;;;;2.30;1.48;;;;;;;12.84;75.05;98293.56;4691305;30;20539;-90
2022/04/07 09:52:59;;;;;;;3.63;1.60;;;;;;;12.85;75.73;98288.09;4694045;30;20128;-89
2022/04/07 09:55:36;;;;;;;4.88;1.67;;;;;;;13.33;75.32;98270.53;4697627;30;20143;-89
2022/04/07 09:58:09;;;;;;;5.20;1.70;;;;;;;13.99;69.74;98267.84;4695457;30;20060;-90
2022/04/07 10:00:35;;;;;;;4.78;2.08;;;;;;;14.75;72.66;98272.91;4694331;30;20045;-90
2022/04/07 10:03:04;;;;;;;4.75;1.98;;;;;;;15.23;67.86;98271.66;4693717;30;20036;-91
2022/04/07 10:05:30;;;;;;;3.08;1.30;;;;;;;15.74;67.65;98278.03;4691495;30;20037;-91
2022/04/07 10:08:00;;;;;;;3.85;1.33;;;;;;;15.94;64.16;98281.31;4690912;30;20037;-90
2022/04/07 10:10:26;;;;;;;6.65;1.40;;;;;;;16.22;64.80;98271.28;4692819;30;20044;-90
2022/04/07 10:12:51;;;;;;;3.85;1.30;;;;;;;16.89;64.27;98272.19;4699633;30;20479;-92
2022/04/07 10:15:18;;;;;;;1.20;0.93;;;;;;;16.54;61.10;98270.56;4692587;30;20101;-90
2022/04/07 10:17:44;;;;;;;3.33;1.42;;;;;;;16.66;58.20;98289.78;4694470;30;20037;-90
2022/04/07 10:20:16;;;;;;;4.50;1.33;;;;;;;16.42;59.56;98319.88;4693426;30;20033;-90
2022/04/07 10:23:19;;;;;;;6.22;0.90;;;;;;;16.51;64.55;98292.25;4691891;30;20038;-90
2022/04/07 10:25:49;;;;;;;6.05;1.35;;;;;;;15.51;60.55;98296.34;4686932;30;20096;-88
2022/04/07 10:28:16;;;;;;;3.70;0.98;;;;;;;14.74;57.50;98311.13;4722986;30;20529;-90
2022/04/07 10:30:52;;;;;;;3.50;0.90;;;;;;;14.26;56.90;98307.69;4701166;30;20077;-91
2022/04/07 10:33:43;;;;;;;5.00;1.00;;;;;;;14.84;54.58;98303.06;4700386;30;20296;-89
2022/04/07 10:36:12;;;;;;;2.35;1.05;;;;;;;14.47;53.71;98304.81;4699328;30;20518;-90
2022/04/07 10:38:41;;;;;;;5.95;1.17;;;;;;;14.08;54.03;98309.44;4712433;30;20052;-91
2022/04/07 10:41:07;;;;;;;6.68;1.65;;;;;;;14.58;54.52;98311.75;4728558;30;20720;-91
2022/04/07 10:43:38;;;;;;;4.72;1.30;;;;;;;14.74;50.40;98322.59;4718378;30;20041;-89
2022/04/07 10:46:06;;;;;;;7.00;1.20;;;;;;;14.71;50.51;98328.19;4700438;30;20037;-90
2022/04/07 10:48:33;;;;;;;6.40;1.25;;;;;;;14.23;50.05;98331.09;4702958;30;20036;-90
2022/04/07 10:50:59;;;;;;;8.10;1.17;;;;;;;14.32;50.45;98326.72;4700294;30;20127;-90
2022/04/07 10:53:54;;;;;;;3.55;0.80;;;;;;;14.98;52.45;98356.59;4713784;30;20055;-90
2022/04/07 10:56:35;;;;;;;6.32;1.27;;;;;;;15.61;50.57;98357.50;4722495;30;20072;-90
2022/04/07 10:59:10;;;;;;;3.97;0.97;;;;;;;15.03;49.23;98346.34;4711116;30;20045;-92
2022/04/07 11:01:38;;;;;;;3.28;0.63;;;;;;;14.80;48.23;98359.22;4706086;30;20574;-92
2022/04/07 11:07:02;;;;;;;8.43;1.42;;;;;;;15.13;50.19;98372.88;4715701;30;20048;-93
2022/04/07 11:09:49;;;;;;;4.97;1.15;;;;;;;14.75;50.42;98371.31;4701898;30;20500;-93
2022/04/07 11:12:33;;;;;;;7.18;1.50;;;;;;;15.11;49.58;98380.19;4727540;30;20048;-92
2022/04/07 11:15:02;;;;;;;7.32;1.20;;;;;;;14.87;48.94;98390.53;4717973;30;20379;-92
2022/04/07 11:17:37;;;;;;;4.90;1.70;;;;;;;14.69;49.12;98393.19;4702804;30;20622;-93
2022/04/07 11:20:16;;;;;;;4.70;0.80;;;;;;;14.58;47.68;98407.47;4705605;30;20118;-93
2022/04/07 11:22:45;;;;;;;4.35;1.58;;;;;;;14.44;47.11;98386.66;4714767;30;20033;-92
2022/04/07 11:25:12;;;;;;;9.48;1.83;;;;;;;14.75;47.68;98403.22;4700636;30;20083;-92
2022/04/07 11:27:45;;;;;;;5.28;1.55;;;;;;;14.71;45.32;98417.78;4700434;30;20087;-92
2022/04/07 11:30:11;;;;;;;;;;;;;;;14.49;47.14;98422.50;4703049;30;20052;-93
2022/04/07 11:32:41;;;;;;;4.35;1.23;;;;;;;14.15;45.93;98416.00;4701931;30;20010;-93
2022/04/07 11:35:14;;;;;;;5.97;1.20;;;;;;;13.93;49.37;98419.81;4704149;30;20494;-92
2022/04/07 11:37:43;;;;;;;5.10;1.10;;;;;;;13.76;47.91;98443.47;4701464;30;20040;-93
2022/04/07 11:40:09;;;;;;;6.97;1.25;;;;;;;13.86;49.84;98437.31;4702403;30;20342;-93